sensor_id;sensor_type;location;lat;lon;timestamp;pressure;altitude;pressure_sealevel;temperature;humidity
26112;BME280;13829;48.990;8.346;2023-03-26T00:01:03;99997.50;;;9.89;100.00
26112;BME280;13829;48.990;8.346;2023-03-26T00:03:33;99997.53;;;10.01;100.00
26112;BME280;13829;48.990;8.346;2023-03-26T00:06:02;99999.28;;;9.98;100.00
26112;BME280;13829;48.990;8.346;2023-03-26T00:08:30;100001.06;;;10.03;100.00
26112;BME280;13829;48.990;8.346;2023-03-26T00:10:57;99998.41;;;9.99;100.00
26112;BME280;13829;48.990;8.346;2023-03-26T00:13:24;99992.28;;;9.92;100.00
26112;BME280;13829;48.990;8.346;2023-03-26T00:15:51;100001.03;;;9.83;100.00
26112;BME280;13829;48.990;8.346;2023-03-26T00:18:20;100001.00;;;9.80;100.00
26112;BME280;13829;48.990;8.346;2023-03-26T00:20:49;99995.72;;;9.68;100.00
26112;BME280;13829;48.990;8.346;2023-03-26T00:23:16;99993.97;;;9.62;100.00
26112;BME280;13829;48.990;8.346;2023-03-26T00:25:43;99991.31;;;9.57;100.00
26112;BME280;13829;48.990;8.346;2023-03-26T00:28:15;99990.47;;;9.61;100.00
26112;BME280;13829;48.990;8.346;2023-03-26T00:30:46;99984.34;;;9.69;100.00
26112;BME280;13829;48.990;8.346;2023-03-26T00:33:13;99978.22;;;9.63;100.00
26112;BME280;13829;48.990;8.346;2023-03-26T00:35:44;99988.75;;;9.67;100.00
26112;BME280;13829;48.990;8.346;2023-03-26T00:38:13;99977.34;;;9.71;100.00
26112;BME280;13829;48.990;8.346;2023-03-26T00:40:40;99980.84;;;9.71;100.00
26112;BME280;13829;48.990;8.346;2023-03-26T00:43:09;99977.38;;;9.83;100.00
26112;BME280;13829;48.990;8.346;2023-03-26T00:45:44;99975.63;;;9.88;100.00
26112;BME280;13829;48.990;8.346;2023-03-26T00:48:11;99972.13;;;9.83;100.00
26112;BME280;13829;48.990;8.346;2023-03-26T00:50:39;99972.13;;;9.86;100.00
26112;BME280;13829;48.990;8.346;2023-03-26T00:53:07;99969.50;;;9.95;100.00
26112;BME280;13829;48.990;8.346;2023-03-26T00:55:37;99962.50;;;9.91;100.00
26112;BME280;13829;48.990;8.346;2023-03-26T00:58:05;99971.25;;;9.87;100.00
26112;BME280;13829;48.990;8.346;2023-03-26T01:00:37;99965.13;;;9.87;100.00
26112;BME280;13829;48.990;8.346;2023-03-26T01:03:05;99956.34;;;9.86;100.00
26112;BME280;13829;48.990;8.346;2023-03-26T01:05:48;99959.00;;;9.89;100.00
26112;BME280;13829;48.990;8.346;2023-03-26T01:08:27;99949.38;;;9.88;100.00
26112;BME280;13829;48.990;8.346;2023-03-26T01:10:58;99933.63;;;9.88;100.00
26112;BME280;13829;48.990;8.346;2023-03-26T01:13:34;99933.59;;;9.82;100.00
26112;BME280;13829;48.990;8.346;2023-03-26T01:16:02;99931.84;;;9.81;100.00
26112;BME280;13829;48.990;8.346;2023-03-26T01:18:32;99922.22;;;9.77;100.00
26112;BME280;13829;48.990;8.346;2023-03-26T01:21:07;99922.22;;;9.71;100.00
26112;BME280;13829;48.990;8.346;2023-03-26T01:23:45;99919.59;;;9.72;100.00
26112;BME280;13829;48.990;8.346;2023-03-26T01:26:31;99918.69;;;9.69;100.00
26112;BME280;13829;48.990;8.346;2023-03-26T01:29:03;99914.34;;;9.61;100.00
26112;BME280;13829;48.990;8.346;2023-03-26T01:31:42;99915.22;;;9.59;100.00
26112;BME280;13829;48.990;8.346;2023-03-26T01:34:21;99911.69;;;9.57;100.00
26112;BME280;13829;48.990;8.346;2023-03-26T01:37:03;99897.72;;;9.58;100.00
26112;BME280;13829;48.990;8.346;2023-03-26T01:39:41;99899.44;;;9.57;100.00
26112;BME280;13829;48.990;8.346;2023-03-26T01:42:25;99881.94;;;9.56;100.00
26112;BME280;13829;48.990;8.346;2023-03-26T01:45:02;99873.22;;;9.67;100.00
26112;BME280;13829;48.990;8.346;2023-03-26T01:47:34;99870.56;;;9.63;100.00
26112;BME280;13829;48.990;8.346;2023-03-26T01:50:04;99865.34;;;9.73;100.00
26112;BME280;13829;48.990;8.346;2023-03-26T01:52:32;99859.19;;;9.71;100.00
26112;BME280;13829;48.990;8.346;2023-03-26T01:54:59;99846.97;;;9.67;100.00
26112;BME280;13829;48.990;8.346;2023-03-26T01:57:37;99851.31;;;9.68;100.00
26112;BME280;13829;48.990;8.346;2023-03-26T02:00:20;99837.31;;;9.59;100.00
26112;BME280;13829;48.990;8.346;2023-03-26T02:03:16;99834.69;;;9.52;100.00
26112;BME280;13829;48.990;8.346;2023-03-26T02:05:53;99825.94;;;9.48;100.00
26112;BME280;13829;48.990;8.346;2023-03-26T02:08:27;99829.44;;;9.36;100.00
26112;BME280;13829;48.990;8.346;2023-03-26T02:11:03;99820.69;;;9.36;100.00
26112;BME280;13829;48.990;8.346;2023-03-26T02:13:37;99816.31;;;9.33;100.00
26112;BME280;13829;48.990;8.346;2023-03-26T02:16:08;99818.94;;;9.38;100.00
26112;BME280;13829;48.990;8.346;2023-03-26T02:18:36;99818.06;;;9.51;100.00
26112;BME280;13829;48.990;8.346;2023-03-26T02:21:08;99811.97;;;9.48;100.00
26112;BME280;13829;48.990;8.346;2023-03-26T02:23:36;99806.69;;;9.32;100.00
26112;BME280;13829;48.990;8.346;2023-03-26T02:26:05;99798.81;;;9.32;100.00
26112;BME280;13829;48.990;8.346;2023-03-26T02:28:33;99794.44;;;9.23;100.00
26112;BME280;13829;48.990;8.346;2023-03-26T02:31:02;99796.19;;;9.21;100.00
26112;BME280;13829;48.990;8.346;2023-03-26T02:33:30;99790.06;;;9.16;100.00
26112;BME280;13829;48.990;8.346;2023-03-26T02:35:58;99790.06;;;9.05;100.00
26112;BME280;13829;48.990;8.346;2023-03-26T02:38:26;99778.69;;;9.08;100.00
26112;BME280;13829;48.990;8.346;2023-03-26T02:40:54;99777.81;;;9.03;100.00
26112;BME280;13829;48.990;8.346;2023-03-26T02:43:21;99777.81;;;9.03;100.00
26112;BME280;13829;48.990;8.346;2023-03-26T02:45:48;99765.56;;;8.92;100.00
26112;BME280;13829;48.990;8.346;2023-03-26T02:48:17;99776.06;;;8.92;100.00
26112;BME280;13829;48.990;8.346;2023-03-26T02:50:45;99775.16;;;8.89;100.00
26112;BME280;13829;48.990;8.346;2023-03-26T02:53:14;99764.66;;;8.90;100.00
26112;BME280;13829;48.990;8.346;2023-03-26T02:55:42;99765.56;;;8.89;100.00
26112;BME280;13829;48.990;8.346;2023-03-26T02:58:09;99752.44;;;8.92;100.00
26112;BME280;13829;48.990;8.346;2023-03-26T03:00:37;99756.78;;;8.84;100.00
26112;BME280;13829;48.990;8.346;2023-03-26T03:03:03;99745.44;;;8.82;100.00
26112;BME280;13829;48.990;8.346;2023-03-26T03:05:32;99735.81;;;8.90;100.00
26112;BME280;13829;48.990;8.346;2023-03-26T03:07:59;99738.47;;;9.00;100.00
26112;BME280;13829;48.990;8.346;2023-03-26T03:10:28;99739.34;;;8.98;100.00
26112;BME280;13829;48.990;8.346;2023-03-26T03:12:58;99726.22;;;9.06;100.00
26112;BME280;13829;48.990;8.346;2023-03-26T03:15:25;99722.72;;;9.03;100.00
26112;BME280;13829;48.990;8.346;2023-03-26T03:17:52;99722.75;;;9.07;100.00
26112;BME280;13829;48.990;8.346;2023-03-26T03:20:19;99706.97;;;9.18;100.00
26112;BME280;13829;48.990;8.346;2023-03-26T03:22:48;99704.38;;;9.21;100.00
26112;BME280;13829;48.990;8.346;2023-03-26T03:25:15;99699.97;;;9.28;100.00
26112;BME280;13829;48.990;8.346;2023-03-26T03:27:43;99705.22;;;9.37;100.00
26112;BME280;13829;48.990;8.346;2023-03-26T03:30:12;99699.09;;;9.49;100.00
26112;BME280;13829;48.990;8.346;2023-03-26T03:32:39;99702.56;;;9.60;100.00
26112;BME280;13829;48.990;8.346;2023-03-26T03:35:07;99700.81;;;9.53;100.00
26112;BME280;13829;48.990;8.346;2023-03-26T03:37:34;99691.22;;;9.48;100.00
26112;BME280;13829;48.990;8.346;2023-03-26T03:40:04;99694.72;;;9.42;100.00
26112;BME280;13829;48.990;8.346;2023-03-26T03:42:32;99685.09;;;9.47;100.00
26112;BME280;13829;48.990;8.346;2023-03-26T03:44:59;99681.59;;;9.46;100.00
26112;BME280;13829;48.990;8.346;2023-03-26T03:47:26;99668.47;;;9.46;100.00
26112;BME280;13829;48.990;8.346;2023-03-26T03:49:53;99668.44;;;9.50;100.00
26112;BME280;13829;48.990;8.346;2023-03-26T03:52:21;99667.56;;;9.46;100.00
26112;BME280;13829;48.990;8.346;2023-03-26T03:54:48;99658.84;;;9.47;100.00
26112;BME280;13829;48.990;8.346;2023-03-26T03:57:17;99653.59;;;9.47;100.00
26112;BME280;13829;48.990;8.346;2023-03-26T03:59:46;99648.38;;;9.44;100.00
26112;BME280;13829;48.990;8.346;2023-03-26T04:02:14;99647.50;;;9.40;100.00
26112;BME280;13829;48.990;8.346;2023-03-26T04:04:45;99636.13;;;9.35;100.00
26112;BME280;13829;48.990;8.346;2023-03-26T04:07:14;99635.28;;;9.30;100.00
26112;BME280;13829;48.990;8.346;2023-03-26T04:09:41;99631.78;;;9.26;100.00
26112;BME280;13829;48.990;8.346;2023-03-26T04:12:08;99624.75;;;9.27;100.00
26112;BME280;13829;48.990;8.346;2023-03-26T04:14:37;99618.66;;;9.26;100.00
26112;BME280;13829;48.990;8.346;2023-03-26T04:17:04;99612.53;;;9.27;100.00
26112;BME280;13829;48.990;8.346;2023-03-26T04:19:31;99605.53;;;9.33;100.00
26112;BME280;13829;48.990;8.346;2023-03-26T04:21:58;99614.25;;;9.35;100.00
26112;BME280;13829;48.990;8.346;2023-03-26T04:24:27;99607.28;;;9.34;100.00
26112;BME280;13829;48.990;8.346;2023-03-26T04:26:55;99595.88;;;9.41;100.00
26112;BME280;13829;48.990;8.346;2023-03-26T04:29:26;99588.00;;;9.41;100.00
26112;BME280;13829;48.990;8.346;2023-03-26T04:31:57;99584.50;;;9.37;100.00
26112;BME280;13829;48.990;8.346;2023-03-26T04:34:32;99577.47;;;9.52;100.00
26112;BME280;13829;48.990;8.346;2023-03-26T04:37:01;99583.66;;;9.35;100.00
26112;BME280;13829;48.990;8.346;2023-03-26T04:39:28;99588.91;;;9.30;100.00
26112;BME280;13829;48.990;8.346;2023-03-26T04:41:55;99587.16;;;9.33;100.00
26112;BME280;13829;48.990;8.346;2023-03-26T04:44:23;99584.53;;;9.29;100.00
26112;BME280;13829;48.990;8.346;2023-03-26T04:46:50;99568.81;;;9.23;100.00
26112;BME280;13829;48.990;8.346;2023-03-26T04:49:21;99570.56;;;9.27;100.00
26112;BME280;13829;48.990;8.346;2023-03-26T04:51:48;99564.41;;;9.32;100.00
26112;BME280;13829;48.990;8.346;2023-03-26T04:54:17;99559.19;;;9.19;100.00
26112;BME280;13829;48.990;8.346;2023-03-26T04:56:51;99555.69;;;9.26;100.00
26112;BME280;13829;48.990;8.346;2023-03-26T04:59:23;99549.53;;;9.35;100.00
26112;BME280;13829;48.990;8.346;2023-03-26T05:01:55;99541.72;;;9.21;100.00
26112;BME280;13829;48.990;8.346;2023-03-26T05:04:27;99533.03;;;8.99;100.00
26112;BME280;13829;48.990;8.346;2023-03-26T05:06:56;99527.84;;;8.82;100.00
26112;BME280;13829;48.990;8.346;2023-03-26T05:09:23;99526.06;;;8.90;100.00
26112;BME280;13829;48.990;8.346;2023-03-26T05:11:50;99524.25;;;9.14;100.00
26112;BME280;13829;48.990;8.346;2023-03-26T05:14:18;99525.09;;;9.21;100.00
26112;BME280;13829;48.990;8.346;2023-03-26T05:16:47;99517.22;;;9.28;100.00
26112;BME280;13829;48.990;8.346;2023-03-26T05:19:15;99515.41;;;9.37;100.00
26112;BME280;13829;48.990;8.346;2023-03-26T05:21:43;99505.78;;;9.39;100.00
26112;BME280;13829;48.990;8.346;2023-03-26T05:24:10;99504.88;;;9.43;100.00
26112;BME280;13829;48.990;8.346;2023-03-26T05:26:37;99497.00;;;9.44;100.00
26112;BME280;13829;48.990;8.346;2023-03-26T05:29:04;99487.38;;;9.48;100.00
26112;BME280;13829;48.990;8.346;2023-03-26T05:31:31;99480.31;;;9.56;100.00
26112;BME280;13829;48.990;8.346;2023-03-26T05:33:58;99468.16;;;9.43;100.00
26112;BME280;13829;48.990;8.346;2023-03-26T05:36:26;99453.22;;;9.53;100.00
26112;BME280;13829;48.990;8.346;2023-03-26T05:38:55;99444.50;;;9.49;100.00
26112;BME280;13829;48.990;8.346;2023-03-26T05:41:21;99440.13;;;9.48;100.00
26112;BME280;13829;48.990;8.346;2023-03-26T05:43:48;99439.22;;;9.52;100.00
26112;BME280;13829;48.990;8.346;2023-03-26T05:46:15;99435.72;;;9.52;100.00
26112;BME280;13829;48.990;8.346;2023-03-26T05:48:44;99431.38;;;9.49;100.00
26112;BME280;13829;48.990;8.346;2023-03-26T05:51:13;99423.44;;;9.54;100.00
26112;BME280;13829;48.990;8.346;2023-03-26T05:53:41;99412.06;;;9.56;100.00
26112;BME280;13829;48.990;8.346;2023-03-26T05:56:10;99404.94;;;9.74;100.00
26112;BME280;13829;48.990;8.346;2023-03-26T05:58:37;99395.22;;;9.87;100.00
26112;BME280;13829;48.990;8.346;2023-03-26T06:01:07;99399.63;;;9.80;100.00
26112;BME280;13829;48.990;8.346;2023-03-26T06:03:38;99404.88;;;9.83;100.00
26112;BME280;13829;48.990;8.346;2023-03-26T06:06:07;99399.63;;;9.83;100.00
26112;BME280;13829;48.990;8.346;2023-03-26T06:08:35;99399.63;;;9.80;100.00
26112;BME280;13829;48.990;8.346;2023-03-26T06:11:04;99397.06;;;9.74;100.00
26112;BME280;13829;48.990;8.346;2023-03-26T06:13:33;99393.56;;;9.75;100.00
26112;BME280;13829;48.990;8.346;2023-03-26T06:16:00;99389.97;;;9.85;100.00
26112;BME280;13829;48.990;8.346;2023-03-26T06:18:27;99391.59;;;10.00;100.00
26112;BME280;13829;48.990;8.346;2023-03-26T06:20:55;99384.31;;;10.27;100.00
26112;BME280;13829;48.990;8.346;2023-03-26T06:23:22;99378.06;;;10.42;100.00
26112;BME280;13829;48.990;8.346;2023-03-26T06:25:48;99375.38;;;10.48;100.00
26112;BME280;13829;48.990;8.346;2023-03-26T06:28:16;99381.53;;;10.46;100.00
26112;BME280;13829;48.990;8.346;2023-03-26T06:30:44;99369.38;;;10.32;100.00
26112;BME280;13829;48.990;8.346;2023-03-26T06:33:11;99359.91;;;10.16;100.00
26112;BME280;13829;48.990;8.346;2023-03-26T06:35:38;99369.59;;;10.12;100.00
26112;BME280;13829;48.990;8.346;2023-03-26T06:38:05;99365.19;;;10.17;100.00
26112;BME280;13829;48.990;8.346;2023-03-26T06:40:33;99378.31;;;10.17;100.00
26112;BME280;13829;48.990;8.346;2023-03-26T06:43:00;99379.09;;;10.25;100.00
26112;BME280;13829;48.990;8.346;2023-03-26T06:45:27;99381.66;;;10.32;100.00
26112;BME280;13829;48.990;8.346;2023-03-26T06:47:55;99369.38;;;10.37;100.00
26112;BME280;13829;48.990;8.346;2023-03-26T06:50:22;99368.63;;;10.19;100.00
26112;BME280;13829;48.990;8.346;2023-03-26T06:52:52;99367.81;;;10.17;100.00
26112;BME280;13829;48.990;8.346;2023-03-26T06:55:20;99359.78;;;10.31;100.00
26112;BME280;13829;48.990;8.346;2023-03-26T06:57:48;99357.94;;;10.41;100.00
26112;BME280;13829;48.990;8.346;2023-03-26T07:00:15;99351.84;;;10.37;100.00
26112;BME280;13829;48.990;8.346;2023-03-26T07:02:43;99343.19;;;10.27;100.00
26112;BME280;13829;48.990;8.346;2023-03-26T07:05:12;99349.34;;;10.25;100.00
26112;BME280;13829;48.990;8.346;2023-03-26T07:07:39;99342.22;;;10.38;100.00
26112;BME280;13829;48.990;8.346;2023-03-26T07:10:07;99351.66;;;10.54;100.00
26112;BME280;13829;48.990;8.346;2023-03-26T07:12:35;99342.25;;;10.32;100.00
26112;BME280;13829;48.990;8.346;2023-03-26T07:15:03;99337.94;;;10.24;100.00
26112;BME280;13829;48.990;8.346;2023-03-26T07:17:30;99344.06;;;10.23;100.00
26112;BME280;13829;48.990;8.346;2023-03-26T07:19:57;99337.94;;;10.24;100.00
26112;BME280;13829;48.990;8.346;2023-03-26T07:22:28;99334.47;;;10.22;100.00
26112;BME280;13829;48.990;8.346;2023-03-26T07:24:55;99328.41;;;10.17;100.00
26112;BME280;13829;48.990;8.346;2023-03-26T07:27:37;99326.69;;;10.15;100.00
26112;BME280;13829;48.990;8.346;2023-03-26T07:30:14;99318.78;;;10.13;100.00
26112;BME280;13829;48.990;8.346;2023-03-26T07:32:52;99311.41;;;10.49;100.00
26112;BME280;13829;48.990;8.346;2023-03-26T07:35:27;99294.78;;;10.47;100.00
26112;BME280;13829;48.990;8.346;2023-03-26T07:38:26;99283.94;;;9.99;100.00
26112;BME280;13829;48.990;8.346;2023-03-26T07:41:05;99277.06;;;9.87;100.00
26112;BME280;13829;48.990;8.346;2023-03-26T07:43:59;99277.84;;;9.93;100.00
26112;BME280;13829;48.990;8.346;2023-03-26T07:46:31;99282.25;;;9.91;100.00
26112;BME280;13829;48.990;8.346;2023-03-26T07:49:01;99275.41;;;9.78;100.00
26112;BME280;13829;48.990;8.346;2023-03-26T07:51:31;99284.06;;;9.86;100.00
26112;BME280;13829;48.990;8.346;2023-03-26T07:54:00;99274.47;;;9.82;100.00
26112;BME280;13829;48.990;8.346;2023-03-26T07:56:35;99273.69;;;9.71;100.00
26112;BME280;13829;48.990;8.346;2023-03-26T07:59:15;99261.47;;;9.70;100.00
26112;BME280;13829;48.990;8.346;2023-03-26T08:02:01;99268.56;;;9.58;100.00
26112;BME280;13829;48.990;8.346;2023-03-26T08:04:55;99251.13;;;9.51;100.00
26112;BME280;13829;48.990;8.346;2023-03-26T08:07:39;99279.09;;;9.55;100.00
26112;BME280;13829;48.990;8.346;2023-03-26T08:10:21;99265.72;;;9.83;100.00
26112;BME280;13829;48.990;8.346;2023-03-26T08:12:58;99289.19;;;9.95;100.00
26112;BME280;13829;48.990;8.346;2023-03-26T08:15:37;99270.38;;;10.39;100.00
26112;BME280;13829;48.990;8.346;2023-03-26T08:18:23;99256.28;;;10.43;100.00
26112;BME280;13829;48.990;8.346;2023-03-26T08:20:57;99283.72;;;10.17;100.00
26112;BME280;13829;48.990;8.346;2023-03-26T08:23:33;99269.81;;;10.07;100.00
26112;BME280;13829;48.990;8.346;2023-03-26T08:26:12;99269.69;;;10.20;100.00
26112;BME280;13829;48.990;8.346;2023-03-26T08:28:56;99260.50;;;10.56;100.00
26112;BME280;13829;48.990;8.346;2023-03-26T08:31:32;99264.03;;;10.55;100.00
26112;BME280;13829;48.990;8.346;2023-03-26T08:34:00;99263.84;;;10.66;100.00
26112;BME280;13829;48.990;8.346;2023-03-26T08:36:27;99272.91;;;10.45;100.00
26112;BME280;13829;48.990;8.346;2023-03-26T08:38:54;99263.06;;;10.61;100.00
26112;BME280;13829;48.990;8.346;2023-03-26T08:41:59;99249.72;;;10.75;100.00
26112;BME280;13829;48.990;8.346;2023-03-26T08:45:25;99256.50;;;10.91;100.00
26112;BME280;13829;48.990;8.346;2023-03-26T08:48:43;99276.03;;;10.73;100.00
26112;BME280;13829;48.990;8.346;2023-03-26T08:55:20;99255.69;;;11.42;100.00
26112;BME280;13829;48.990;8.346;2023-03-26T09:02:09;99249.13;;;11.65;100.00
26112;BME280;13829;48.990;8.346;2023-03-26T09:05:35;99240.94;;;11.82;100.00
26112;BME280;13829;48.990;8.346;2023-03-26T09:08:46;99235.16;;;12.10;100.00
26112;BME280;13829;48.990;8.346;2023-03-26T09:11:47;99230.00;;;12.04;100.00
26112;BME280;13829;48.990;8.346;2023-03-26T09:14:42;99230.88;;;12.06;100.00
26112;BME280;13829;48.990;8.346;2023-03-26T09:17:45;99227.25;;;12.10;100.00
26112;BME280;13829;48.990;8.346;2023-03-26T09:21:07;99227.97;;;12.18;100.00
26112;BME280;13829;48.990;8.346;2023-03-26T09:27:14;99232.16;;;12.68;100.00
26112;BME280;13829;48.990;8.346;2023-03-26T09:33:31;99220.59;;;13.82;100.00
26112;BME280;13829;48.990;8.346;2023-03-26T09:36:28;99208.44;;;14.38;100.00
26112;BME280;13829;48.990;8.346;2023-03-26T09:39:08;99211.31;;;14.90;100.00
26112;BME280;13829;48.990;8.346;2023-03-26T09:41:42;99209.41;;;14.93;96.62
26112;BME280;13829;48.990;8.346;2023-03-26T09:45:01;99201.38;;;14.38;99.30
26112;BME280;13829;48.990;8.346;2023-03-26T09:48:06;99205.28;;;14.25;100.00
26112;BME280;13829;48.990;8.346;2023-03-26T09:50:47;99199.94;;;14.28;99.50
26112;BME280;13829;48.990;8.346;2023-03-26T09:53:47;99196.72;;;14.16;97.00
26112;BME280;13829;48.990;8.346;2023-03-26T09:56:32;99184.47;;;14.12;95.16
26112;BME280;13829;48.990;8.346;2023-03-26T09:59:32;99189.78;;;14.12;89.78
26112;BME280;13829;48.990;8.346;2023-03-26T10:02:21;99185.03;;;13.94;90.24
26112;BME280;13829;48.990;8.346;2023-03-26T10:05:16;99183.22;;;13.64;90.08
26112;BME280;13829;48.990;8.346;2023-03-26T10:08:05;99178.75;;;13.32;90.21
26112;BME280;13829;48.990;8.346;2023-03-26T10:10:50;99185.91;;;13.27;86.23
26112;BME280;13829;48.990;8.346;2023-03-26T10:13:30;99186.97;;;13.19;84.73
26112;BME280;13829;48.990;8.346;2023-03-26T10:16:21;99188.97;;;13.10;81.56
26112;BME280;13829;48.990;8.346;2023-03-26T10:19:11;99180.84;;;13.19;83.01
26112;BME280;13829;48.990;8.346;2023-03-26T10:21:52;99184.44;;;13.16;78.53
26112;BME280;13829;48.990;8.346;2023-03-26T10:24:44;99181.69;;;13.19;80.67
26112;BME280;13829;48.990;8.346;2023-03-26T10:27:29;99185.56;;;13.06;70.78
26112;BME280;13829;48.990;8.346;2023-03-26T10:30:39;99183.69;;;13.11;70.71
26112;BME280;13829;48.990;8.346;2023-03-26T10:33:19;99194.25;;;13.11;68.27
26112;BME280;13829;48.990;8.346;2023-03-26T10:36:07;99187.28;;;13.07;67.26
26112;BME280;13829;48.990;8.346;2023-03-26T10:39:00;99187.91;;;13.17;68.62
26112;BME280;13829;48.990;8.346;2023-03-26T10:41:40;99191.44;;;13.17;67.43
26112;BME280;13829;48.990;8.346;2023-03-26T10:44:41;99190.59;;;13.15;65.07
26112;BME280;13829;48.990;8.346;2023-03-26T10:47:46;99178.41;;;13.11;65.17
26112;BME280;13829;48.990;8.346;2023-03-26T10:50:34;99178.47;;;13.08;61.22
26112;BME280;13829;48.990;8.346;2023-03-26T10:53:21;99176.50;;;13.16;63.12
26112;BME280;13829;48.990;8.346;2023-03-26T10:55:57;99181.63;;;13.23;64.54
26112;BME280;13829;48.990;8.346;2023-03-26T10:58:28;99183.97;;;13.33;62.77
26112;BME280;13829;48.990;8.346;2023-03-26T11:01:01;99206.03;;;13.31;61.01
26112;BME280;13829;48.990;8.346;2023-03-26T11:03:48;99195.50;;;13.31;57.53
26112;BME280;13829;48.990;8.346;2023-03-26T11:06:30;99198.88;;;13.36;57.57
26112;BME280;13829;48.990;8.346;2023-03-26T11:09:19;99202.06;;;13.50;58.42
26112;BME280;13829;48.990;8.346;2023-03-26T11:11:56;99199.50;;;13.47;61.15
26112;BME280;13829;48.990;8.346;2023-03-26T11:14:32;99193.94;;;13.58;57.12
26112;BME280;13829;48.990;8.346;2023-03-26T11:17:10;99203.75;;;13.53;57.11
26112;BME280;13829;48.990;8.346;2023-03-26T11:19:48;99183.06;;;13.69;59.17
26112;BME280;13829;48.990;8.346;2023-03-26T11:22:27;99189.19;;;13.71;58.28
26112;BME280;13829;48.990;8.346;2023-03-26T11:25:33;99197.47;;;13.90;58.55
26112;BME280;13829;48.990;8.346;2023-03-26T11:28:18;99194.81;;;13.90;58.98
26112;BME280;13829;48.990;8.346;2023-03-26T11:30:57;99197.47;;;13.90;58.68
26112;BME280;13829;48.990;8.346;2023-03-26T11:33:33;99204.28;;;13.99;60.62
26112;BME280;13829;48.990;8.346;2023-03-26T11:36:06;99189.97;;;14.06;58.09
26112;BME280;13829;48.990;8.346;2023-03-26T11:38:37;99188.13;;;14.08;57.93
26112;BME280;13829;48.990;8.346;2023-03-26T11:41:15;99196.22;;;14.03;56.69
26112;BME280;13829;48.990;8.346;2023-03-26T11:43:49;99195.50;;;13.97;56.48
26112;BME280;13829;48.990;8.346;2023-03-26T11:46:20;99191.41;;;13.86;57.16
26112;BME280;13829;48.990;8.346;2023-03-26T11:48:52;99197.41;;;13.92;58.77
26112;BME280;13829;48.990;8.346;2023-03-26T11:51:26;99199.50;;;13.80;56.77
26112;BME280;13829;48.990;8.346;2023-03-26T11:53:55;99190.75;;;13.78;58.53
26112;BME280;13829;48.990;8.346;2023-03-26T11:56:30;99185.97;;;13.60;57.32
26112;BME280;13829;48.990;8.346;2023-03-26T11:59:03;99201.72;;;13.63;57.74
26112;BME280;13829;48.990;8.346;2023-03-26T12:01:45;99197.44;;;13.59;58.10
26112;BME280;13829;48.990;8.346;2023-03-26T12:04:17;99177.38;;;13.51;57.72
26112;BME280;13829;48.990;8.346;2023-03-26T12:06:54;99187.88;;;13.54;58.91
26112;BME280;13829;48.990;8.346;2023-03-26T12:09:23;99186.66;;;13.66;57.50
26112;BME280;13829;48.990;8.346;2023-03-26T12:11:58;99167.16;;;13.72;59.44
26112;BME280;13829;48.990;8.346;2023-03-26T12:14:29;99174.81;;;13.81;59.14
26112;BME280;13829;48.990;8.346;2023-03-26T12:17:04;99173.34;;;14.02;56.79
26112;BME280;13829;48.990;8.346;2023-03-26T12:19:38;99172.69;;;13.94;54.60
26112;BME280;13829;48.990;8.346;2023-03-26T12:22:27;99145.38;;;13.94;54.13
26112;BME280;13829;48.990;8.346;2023-03-26T12:25:14;99158.72;;;13.89;52.73
26112;BME280;13829;48.990;8.346;2023-03-26T12:27:47;99137.53;;;13.91;53.12
26112;BME280;13829;48.990;8.346;2023-03-26T12:30:21;99142.75;;;13.94;54.58
26112;BME280;13829;48.990;8.346;2023-03-26T12:32:52;99141.91;;;13.92;52.66
26112;BME280;13829;48.990;8.346;2023-03-26T12:35:24;99138.09;;;14.02;53.35
26112;BME280;13829;48.990;8.346;2023-03-26T12:37:53;99136.88;;;14.14;53.98
26112;BME280;13829;48.990;8.346;2023-03-26T12:40:31;99134.44;;;14.36;53.65
26112;BME280;13829;48.990;8.346;2023-03-26T12:43:05;99136.75;;;14.47;51.20
26112;BME280;13829;48.990;8.346;2023-03-26T12:45:49;99142.84;;;14.49;52.33
26112;BME280;13829;48.990;8.346;2023-03-26T12:48:19;99126.44;;;14.38;51.43
26112;BME280;13829;48.990;8.346;2023-03-26T12:51:06;99130.50;;;14.49;51.14
26112;BME280;13829;48.990;8.346;2023-03-26T12:54:22;99120.88;;;14.75;52.24
26112;BME280;13829;48.990;8.346;2023-03-26T12:57:05;99132.03;;;14.85;50.83
26112;BME280;13829;48.990;8.346;2023-03-26T12:59:58;99121.94;;;14.96;52.32
26112;BME280;13829;48.990;8.346;2023-03-26T13:02:58;99115.72;;;15.24;55.15
26112;BME280;13829;48.990;8.346;2023-03-26T13:05:43;99105.81;;;15.55;50.25
26112;BME280;13829;48.990;8.346;2023-03-26T13:08:51;99112.78;;;15.82;52.23
26112;BME280;13829;48.990;8.346;2023-03-26T13:11:34;99102.41;;;16.00;51.20
26112;BME280;13829;48.990;8.346;2023-03-26T13:14:27;99105.03;;;16.00;48.87
26112;BME280;13829;48.990;8.346;2023-03-26T13:17:04;99107.69;;;16.00;49.54
26112;BME280;13829;48.990;8.346;2023-03-26T13:19:46;99114.59;;;16.04;48.85
26112;BME280;13829;48.990;8.346;2023-03-26T13:22:25;99110.44;;;15.97;47.80
26112;BME280;13829;48.990;8.346;2023-03-26T13:25:03;99112.84;;;15.79;45.71
26112;BME280;13829;48.990;8.346;2023-03-26T13:27:45;99113.59;;;15.59;46.25
26112;BME280;13829;48.990;8.346;2023-03-26T13:30:28;99119.41;;;15.19;45.66
26112;BME280;13829;48.990;8.346;2023-03-26T13:33:24;99127.25;;;14.96;49.28
26112;BME280;13829;48.990;8.346;2023-03-26T13:36:03;99121.25;;;14.91;49.13
26112;BME280;13829;48.990;8.346;2023-03-26T13:38:50;99131.38;;;14.78;48.15
26112;BME280;13829;48.990;8.346;2023-03-26T13:41:32;99129.91;;;14.70;48.39
26112;BME280;13829;48.990;8.346;2023-03-26T13:44:14;99132.13;;;14.54;47.75
26112;BME280;13829;48.990;8.346;2023-03-26T13:46:50;99131.22;;;14.55;50.18
26112;BME280;13829;48.990;8.346;2023-03-26T13:49:28;99154.44;;;14.16;49.73
26112;BME280;13829;48.990;8.346;2023-03-26T13:52:07;99162.75;;;13.71;53.09
26112;BME280;13829;48.990;8.346;2023-03-26T13:54:42;99191.25;;;13.60;55.69
26112;BME280;13829;48.990;8.346;2023-03-26T13:57:19;99204.56;;;13.20;61.80